Time;durP1;ratioP1;P1;durP2;ratioP2;P2;SDS_P1;SDS_P2;PMS_P1;PMS_P2;Temp;Humidity;BMP_temperature;BMP_pressure;BME280_temperature;BME280_humidity;BME280_pressure;Samples;Min_cycle;Max_cycle;Signal;HPM_P1;HPM_P2
2021/12/02 00:08:24;;;;;;;7.00;2.20;;;;;;;;;;21083984;28;20086;-57
2021/12/02 00:28:29;;;;;;;3.92;1.60;;;;;;;;;;21167007;28;20491;-58
2021/12/02 00:38:31;;;;;;;4.82;1.35;;;;;;;;;;21165393;28;20135;-58
2021/12/02 00:48:34;;;;;;;2.65;1.02;;;;;;;;;;21147177;28;20039;-58
2021/12/02 00:58:37;;;;;;;1.75;0.93;;;;;;;;;;21165826;28;20480;-58
2021/12/02 01:08:42;;;;;;;2.05;0.95;;;;;;;;;;21249537;27;20047;-58
2021/12/02 01:18:44;;;;;;;4.95;1.23;;;;;;;;;;21248831;27;20074;-58
2021/12/02 01:28:47;;;;;;;2.45;1.00;;;;;;;;;;21248650;27;20384;-58
2021/12/02 01:38:50;;;;;;;2.30;1.00;;;;;;;;;;21247887;28;20404;-59
2021/12/02 01:49:04;;;;;;;3.55;1.15;;;;;;;;;;21255848;27;20051;-58
2021/12/02 01:59:12;;;;;;;4.60;1.17;;;;;;;;;;21264285;27;20559;-57
2021/12/02 02:09:14;;;;;;;3.63;0.95;;;;;;;;;;21263455;27;20480;-57
2021/12/02 02:19:16;;;;;;;3.00;1.00;;;;;;;;;;21263435;27;20051;-58
2021/12/02 02:29:18;;;;;;;1.77;0.70;;;;;;;;;;21262419;27;20130;-58
2021/12/02 02:39:22;;;;;;;2.70;1.02;;;;;;;;;;21261290;27;20046;-58
2021/12/02 02:49:26;;;;;;;5.55;1.08;;;;;;;;;;21260597;27;20411;-57
2021/12/02 03:19:42;;;;;;;4.22;1.35;;;;;;;;;;21258725;27;20045;-57
2021/12/02 03:29:46;;;;;;;;;;;;;;;;;;21239792;27;20051;-57
2021/12/02 03:39:54;;;;;;;2.15;0.80;;;;;;;;;;21256193;27;19927;-56
2021/12/02 03:49:59;;;;;;;1.97;1.03;;;;;;;;;;21255005;27;20050;-56
2021/12/02 04:00:06;;;;;;;1.60;0.70;;;;;;;;;;21254542;27;20050;-57
2021/12/02 04:10:11;;;;;;;3.27;1.10;;;;;;;;;;21253719;27;20047;-58
2021/12/02 04:20:37;;;;;;;2.17;0.77;;;;;;;;;;21068855;27;20834;-57
2021/12/02 04:30:45;;;;;;;1.45;0.70;;;;;;;;;;21067818;28;20136;-57
2021/12/02 04:40:52;;;;;;;0.98;0.50;;;;;;;;;;21066571;28;20059;-57
2021/12/02 04:51:04;;;;;;;2.00;1.00;;;;;;;;;;21066606;28;20420;-57
2021/12/02 05:01:10;;;;;;;2.05;1.02;;;;;;;;;;21065228;28;20139;-58
2021/12/02 05:11:21;;;;;;;1.88;0.82;;;;;;;;;;21064969;28;20048;-57
2021/12/02 05:21:25;;;;;;;0.87;0.40;;;;;;;;;;21064487;28;20056;-58
2021/12/02 05:31:30;;;;;;;1.00;0.60;;;;;;;;;;21009435;28;20045;-57
2021/12/02 05:41:33;;;;;;;0.45;0.30;;;;;;;;;;21005958;28;20060;-57
2021/12/02 05:51:40;;;;;;;0.90;0.50;;;;;;;;;;21005256;28;20048;-58
2021/12/02 06:01:43;;;;;;;0.90;0.50;;;;;;;;;;21005025;28;20051;-57
2021/12/02 06:11:46;;;;;;;0.90;0.47;;;;;;;;;;21004916;28;20131;-58
2021/12/02 06:21:51;;;;;;;0.60;0.40;;;;;;;;;;21003118;28;20061;-57
2021/12/02 06:31:53;;;;;;;0.45;0.40;;;;;;;;;;21003406;28;20101;-57
2021/12/02 06:41:55;;;;;;;1.35;0.55;;;;;;;;;;20998773;28;20048;-57
2021/12/02 06:51:59;;;;;;;2.22;0.60;;;;;;;;;;21000530;28;20052;-57
2021/12/02 07:02:02;;;;;;;5.90;3.60;;;;;;;;;;20999413;28;20048;-57
2021/12/02 07:12:05;;;;;;;2.80;0.80;;;;;;;;;;20998307;28;20048;-57
2021/12/02 07:22:07;;;;;;;2.42;1.15;;;;;;;;;;20998678;28;20442;-57
2021/12/02 07:32:10;;;;;;;2.08;1.00;;;;;;;;;;20997056;28;20393;-57
2021/12/02 07:42:17;;;;;;;2.83;1.60;;;;;;;;;;20996022;28;20044;-56
2021/12/02 07:52:26;;;;;;;6.57;3.30;;;;;;;;;;20995811;28;20059;-57
2021/12/02 08:02:33;;;;;;;5.65;3.70;;;;;;;;;;20995418;28;20074;-58
2021/12/02 08:12:37;;;;;;;11.60;5.22;;;;;;;;;;20994037;28;20052;-57
2021/12/02 08:22:41;;;;;;;5.63;2.50;;;;;;;;;;20991858;28;20044;-56
2021/12/02 08:32:45;;;;;;;5.45;2.47;;;;;;;;;;20992949;28;20477;-57
2021/12/02 08:42:48;;;;;;;5.10;2.40;;;;;;;;;;20994142;28;20083;-57
2021/12/02 08:52:53;;;;;;;3.05;0.80;;;;;;;;;;20993405;28;20088;-57
2021/12/02 09:02:56;;;;;;;2.45;0.70;;;;;;;;;;21001853;28;20067;-56
2021/12/02 09:12:59;;;;;;;1.00;0.63;;;;;;;;;;21007695;28;20060;-57
2021/12/02 09:23:03;;;;;;;2.08;1.10;;;;;;;;;;21007320;28;20044;-57
2021/12/02 09:33:06;;;;;;;1.83;0.60;;;;;;;;;;21006809;28;20086;-58
2021/12/02 09:43:11;;;;;;;0.98;0.45;;;;;;;;;;21004333;28;20106;-56
2021/12/02 09:53:18;;;;;;;2.08;0.70;;;;;;;;;;21004744;28;20056;-58
2021/12/02 10:03:31;;;;;;;0.85;0.60;;;;;;;;;;21003235;28;20052;-58
2021/12/02 10:13:45;;;;;;;1.80;0.80;;;;;;;;;;21003715;28;20056;-58
2021/12/02 10:23:49;;;;;;;1.90;0.70;;;;;;;;;;20994697;28;20110;-54
2021/12/02 10:33:54;;;;;;;2.38;0.73;;;;;;;;;;20997307;28;20056;-54
2021/12/02 10:44:06;;;;;;;1.98;0.60;;;;;;;;;;20999283;28;20075;-55
2021/12/02 10:54:13;;;;;;;4.95;0.70;;;;;;;;;;20997632;28;20063;-54
2021/12/02 11:04:16;;;;;;;3.47;0.60;;;;;;;;;;20994219;28;20044;-54
2021/12/02 11:14:18;;;;;;;1.63;0.77;;;;;;;;;;20995752;28;20052;-55
2021/12/02 11:24:32;;;;;;;2.80;0.50;;;;;;;;;;20994324;28;21231;-53
2021/12/02 11:34:34;;;;;;;2.47;0.50;;;;;;;;;;20992378;28;20052;-54
2021/12/02 11:44:39;;;;;;;2.53;0.57;;;;;;;;;;20993266;28;20044;-54
2021/12/02 11:54:41;;;;;;;0.82;0.40;;;;;;;;;;20994284;28;20075;-54
2021/12/02 12:04:54;;;;;;;1.90;0.47;;;;;;;;;;20995300;28;20044;-55
2021/12/02 12:14:56;;;;;;;4.53;0.80;;;;;;;;;;20994583;28;20056;-59
2021/12/02 12:25:03;;;;;;;2.25;0.60;;;;;;;;;;20994835;28;20405;-58
2021/12/02 12:45:36;;;;;;;1.13;0.52;;;;;;;;;;20918011;28;20049;-59
2021/12/02 12:55:59;;;;;;;1.88;0.73;;;;;;;;;;20917658;28;20053;-58
2021/12/02 13:06:08;;;;;;;2.45;0.80;;;;;;;;;;20909969;28;20045;-60
2021/12/02 13:16:16;;;;;;;1.52;0.60;;;;;;;;;;20938264;28;20072;-58
2021/12/02 13:26:21;;;;;;;2.78;0.80;;;;;;;;;;21004797;28;20044;-60
2021/12/02 13:36:43;;;;;;;2.78;1.05;;;;;;;;;;21005895;28;20048;-60
2021/12/02 13:46:47;;;;;;;2.63;0.93;;;;;;;;;;21003913;28;20056;-60
2021/12/02 13:56:49;;;;;;;2.83;0.95;;;;;;;;;;21003997;28;20060;-58
2021/12/02 14:07:12;;;;;;;1.33;0.55;;;;;;;;;;21004269;28;20079;-59
2021/12/02 14:17:15;;;;;;;3.00;1.40;;;;;;;;;;21003270;28;20405;-59
2021/12/02 14:27:18;;;;;;;1.13;0.77;;;;;;;;;;21001607;28;20078;-59
2021/12/02 14:37:27;;;;;;;1.38;0.70;;;;;;;;;;20999922;28;20048;-59
2021/12/02 14:47:35;;;;;;;1.55;0.80;;;;;;;;;;20999305;28;20524;-58
2021/12/02 14:57:41;;;;;;;2.85;0.90;;;;;;;;;;20999127;28;20052;-59
2021/12/02 15:07:49;;;;;;;2.47;0.50;;;;;;;;;;20998483;28;20082;-59
2021/12/02 15:18:04;;;;;;;3.10;1.10;;;;;;;;;;20997701;28;20052;-59
2021/12/02 15:28:06;;;;;;;3.92;1.00;;;;;;;;;;20997092;28;20094;-58
2021/12/02 15:38:08;;;;;;;3.70;1.55;;;;;;;;;;20996115;28;20052;-60
2021/12/02 15:48:11;;;;;;;2.97;0.82;;;;;;;;;;20978651;28;20044;-58
2021/12/02 15:58:15;;;;;;;12.60;2.13;;;;;;;;;;20995632;28;20048;-59
2021/12/02 16:08:37;;;;;;;1.63;0.80;;;;;;;;;;20994921;28;20136;-59
2021/12/02 16:18:39;;;;;;;1.95;1.00;;;;;;;;;;20994535;28;20052;-59
2021/12/02 16:28:41;;;;;;;2.10;0.95;;;;;;;;;;20993398;28;20049;-60
2021/12/02 16:39:14;;;;;;;3.17;0.77;;;;;;;;;;20993336;28;20480;-59
2021/12/02 16:49:21;;;;;;;4.45;1.20;;;;;;;;;;20992287;28;20048;-60
2021/12/02 16:59:23;;;;;;;3.33;1.13;;;;;;;;;;20992726;28;20056;-58
2021/12/02 17:09:26;;;;;;;3.45;1.40;;;;;;;;;;20992849;28;20053;-58
2021/12/02 17:19:29;;;;;;;5.97;1.75;;;;;;;;;;20991966;28;20142;-60
2021/12/02 17:29:31;;;;;;;4.28;1.70;;;;;;;;;;21006359;28;20131;-58
2021/12/02 17:39:34;;;;;;;3.33;1.10;;;;;;;;;;21005455;28;20044;-59
2021/12/02 17:49:37;;;;;;;2.58;1.00;;;;;;;;;;21004497;28;20036;-59
2021/12/02 17:59:40;;;;;;;18.08;10.32;;;;;;;;;;21004603;28;20083;-59
2021/12/02 18:09:42;;;;;;;3.75;1.98;;;;;;;;;;21003291;28;20477;-59
2021/12/02 18:19:44;;;;;;;4.50;1.05;;;;;;;;;;21002204;28;20074;-59
2021/12/02 18:29:47;;;;;;;3.75;1.00;;;;;;;;;;21000205;28;20095;-57
2021/12/02 18:39:53;;;;;;;2.38;0.88;;;;;;;;;;21000996;28;20489;-59
2021/12/02 18:49:58;;;;;;;3.05;1.20;;;;;;;;;;20999829;28;20102;-59
2021/12/02 19:00:06;;;;;;;2.63;1.00;;;;;;;;;;20998902;28;20049;-61
2021/12/02 19:30:49;;;;;;;13.60;9.10;;;;;;;;;;20995482;28;20056;-59
2021/12/02 19:40:51;;;;;;;10.55;3.78;;;;;;;;;;20994728;28;20048;-60
2021/12/02 19:50:54;;;;;;;17.08;7.50;;;;;;;;;;20993982;28;20504;-59
2021/12/02 20:00:57;;;;;;;39.75;18.80;;;;;;;;;;20993124;28;20086;-60
2021/12/02 20:10:59;;;;;;;18.45;9.90;;;;;;;;;;20992718;28;20056;-62
2021/12/02 20:21:01;;;;;;;13.65;9.40;;;;;;;;;;20992753;28;20045;-62
2021/12/02 20:31:04;;;;;;;17.92;8.88;;;;;;;;;;20992362;28;20053;-60
2021/12/02 20:41:06;;;;;;;22.80;10.75;;;;;;;;;;20991853;28;20052;-59
2021/12/02 20:51:10;;;;;;;11.07;5.85;;;;;;;;;;20991846;28;20056;-60
2021/12/02 21:01:13;;;;;;;11.13;4.97;;;;;;;;;;21003237;28;20131;-60
2021/12/02 21:11:16;;;;;;;7.38;2.90;;;;;;;;;;21008122;28;20075;-59
2021/12/02 21:21:20;;;;;;;6.90;2.78;;;;;;;;;;21007573;28;20048;-59
2021/12/02 21:31:22;;;;;;;8.52;3.35;;;;;;;;;;21006757;28;20182;-60
2021/12/02 21:41:25;;;;;;;9.55;3.25;;;;;;;;;;21004605;28;20049;-60
2021/12/02 21:51:27;;;;;;;7.90;3.58;;;;;;;;;;21005744;28;20048;-60
2021/12/02 22:01:36;;;;;;;7.75;3.80;;;;;;;;;;21005594;28;20048;-60
2021/12/02 22:11:39;;;;;;;9.80;4.80;;;;;;;;;;21005685;28;20122;-61
2021/12/02 22:21:42;;;;;;;7.18;3.50;;;;;;;;;;21003702;28;20059;-59
2021/12/02 22:31:45;;;;;;;9.35;4.47;;;;;;;;;;21002505;28;20045;-59
2021/12/02 22:41:47;;;;;;;19.30;11.38;;;;;;;;;;21001275;28;20052;-60
2021/12/02 22:51:49;;;;;;;19.42;10.07;;;;;;;;;;21000422;28;20105;-59
2021/12/02 23:01:52;;;;;;;6.60;3.22;;;;;;;;;;20999747;28;20063;-60
2021/12/02 23:11:54;;;;;;;4.97;1.90;;;;;;;;;;20998350;28;20080;-59
2021/12/02 23:21:57;;;;;;;3.90;2.08;;;;;;;;;;20998353;28;20117;-59
2021/12/02 23:32:06;;;;;;;6.13;3.22;;;;;;;;;;20998420;28;20048;-60
2021/12/02 23:42:08;;;;;;;4.38;1.40;;;;;;;;;;20997365;28;20048;-60
2021/12/02 23:52:10;;;;;;;2.60;1.50;;;;;;;;;;20998028;28;20048;-58
